createdAt,value
2019-05-12T00:01:01.797Z,99.90
2019-05-12T00:03:30.863Z,99.90
2019-05-12T00:05:59.860Z,99.90
2019-05-12T00:08:28.975Z,99.90
2019-05-12T00:10:58.367Z,99.90
2019-05-12T00:13:27.910Z,99.90
2019-05-12T00:15:58.306Z,99.90
2019-05-12T00:18:28.473Z,99.90
2019-05-12T00:20:57.967Z,99.90
2019-05-12T00:23:30.869Z,99.90
2019-05-12T00:25:58.780Z,99.90
2019-05-12T00:28:28.426Z,99.90
2019-05-12T00:30:58.020Z,99.90
2019-05-12T00:33:28.304Z,99.90
2019-05-12T00:35:58.752Z,99.90
2019-05-12T00:38:28.001Z,99.90
2019-05-12T00:40:58.300Z,99.90
2019-05-12T00:43:28.090Z,99.90
2019-05-12T00:45:58.711Z,99.90
2019-05-12T00:48:28.413Z,99.90
2019-05-12T00:50:58.392Z,99.90
2019-05-12T00:53:39.455Z,99.90
2019-05-12T00:55:58.551Z,99.90
2019-05-12T00:58:27.903Z,99.90
2019-05-12T01:00:59.570Z,99.90
2019-05-12T01:03:28.117Z,99.90
2019-05-12T01:05:57.734Z,99.90
2019-05-12T01:08:28.060Z,99.90
2019-05-12T01:10:58.277Z,99.90
2019-05-12T01:13:28.066Z,99.90
2019-05-12T01:15:58.700Z,99.90
2019-05-12T01:18:28.144Z,99.90
2019-05-12T01:20:58.328Z,99.90
2019-05-12T01:23:28.243Z,99.90
2019-05-12T01:25:58.476Z,99.90
2019-05-12T01:28:28.005Z,99.90
2019-05-12T01:31:18.145Z,99.90
2019-05-12T01:33:48.583Z,99.90
2019-05-12T01:36:18.117Z,99.90
2019-05-12T01:38:48.274Z,99.90
2019-05-12T01:41:18.028Z,99.90
2019-05-12T01:43:48.778Z,99.90
2019-05-12T01:46:18.183Z,99.90
2019-05-12T01:48:48.381Z,99.90
2019-05-12T01:51:17.817Z,99.90
2019-05-12T01:53:48.263Z,99.90
2019-05-12T01:56:18.218Z,99.90
2019-05-12T01:58:48.393Z,99.90
2019-05-12T02:01:18.484Z,99.90
2019-05-12T02:03:48.045Z,99.90
2019-05-12T02:06:18.455Z,99.90
2019-05-12T02:08:58.050Z,99.90
2019-05-12T02:11:32.405Z,99.90
2019-05-12T02:14:03.259Z,99.90
2019-05-12T02:16:32.325Z,99.90
2019-05-12T02:19:01.358Z,99.90
2019-05-12T02:21:30.429Z,99.90
2019-05-12T02:23:59.424Z,99.90
2019-05-12T02:26:29.079Z,99.90
2019-05-12T02:28:58.669Z,99.90
2019-05-12T02:31:29.394Z,99.90
2019-05-12T02:33:58.507Z,99.90
2019-05-12T02:36:27.574Z,99.90
2019-05-12T02:38:56.663Z,99.90
2019-05-12T02:41:26.224Z,99.90
2019-05-12T02:43:55.635Z,99.90
2019-05-12T02:46:25.769Z,99.90
2019-05-12T02:48:54.933Z,99.90
2019-05-12T02:51:24.971Z,99.90
2019-05-12T02:53:55.445Z,99.90
2019-05-12T02:56:26.070Z,99.90
2019-05-12T02:58:55.911Z,99.90
2019-05-12T03:01:28.413Z,99.90
2019-05-12T03:04:00.043Z,99.90
2019-05-12T03:06:31.245Z,99.90
2019-05-12T03:09:04.820Z,99.90
2019-05-12T03:11:35.439Z,99.90
2019-05-12T03:14:04.530Z,99.90
2019-05-12T03:16:34.989Z,99.90
2019-05-12T03:19:05.230Z,99.90
2019-05-12T03:21:35.461Z,99.90
2019-05-12T03:24:06.345Z,99.90
2019-05-12T03:26:35.823Z,99.90
2019-05-12T03:29:05.879Z,99.90
2019-05-12T03:31:39.895Z,99.90
2019-05-12T03:34:09.461Z,99.90
2019-05-12T03:36:41.672Z,99.90
2019-05-12T03:39:08.834Z,99.90
2019-05-12T03:41:37.940Z,99.90
2019-05-12T03:44:07.003Z,99.90
2019-05-12T03:46:36.208Z,99.90
2019-05-12T03:49:05.804Z,99.90
2019-05-12T03:51:35.419Z,99.90
2019-05-12T03:54:05.298Z,99.90
2019-05-12T03:56:34.995Z,99.90
2019-05-12T03:59:05.109Z,99.90
2019-05-12T04:01:36.363Z,99.90
2019-05-12T04:04:05.785Z,99.90
2019-05-12T04:06:35.097Z,99.90
2019-05-12T04:09:08.652Z,99.90
2019-05-12T04:11:38.175Z,99.90
2019-05-12T04:14:07.356Z,99.90
2019-05-12T04:16:36.771Z,99.90
2019-05-12T04:19:06.110Z,99.90
2019-05-12T04:21:35.616Z,99.90
2019-05-12T04:24:05.947Z,99.90
2019-05-12T04:26:36.610Z,99.90
2019-05-12T04:29:06.181Z,99.90
2019-05-12T04:31:36.195Z,99.90
2019-05-12T04:34:05.679Z,99.90
2019-05-12T04:36:35.703Z,99.90
2019-05-12T04:39:07.100Z,99.90
2019-05-12T04:41:36.635Z,99.90
2019-05-12T04:44:06.125Z,99.90
2019-05-12T04:46:35.536Z,99.90
2019-05-12T04:49:05.539Z,99.90
2019-05-12T04:51:35.205Z,99.90
2019-05-12T04:54:05.724Z,99.90
2019-05-12T04:56:36.089Z,99.90
2019-05-12T04:59:05.593Z,99.90
2019-05-12T05:01:35.148Z,99.90
2019-05-12T05:04:05.379Z,99.90
2019-05-12T05:06:35.341Z,99.90
2019-05-12T05:09:07.219Z,99.90
2019-05-12T05:11:36.386Z,99.90
2019-05-12T05:14:05.653Z,99.90
2019-05-12T05:16:34.938Z,99.90
2019-05-12T05:19:24.407Z,99.90
2019-05-12T05:22:33.355Z,99.90
2019-05-12T05:25:04.258Z,99.90
2019-05-12T05:27:34.031Z,99.90
2019-05-12T05:30:04.060Z,99.90
2019-05-12T05:32:33.930Z,99.90
2019-05-12T05:35:03.914Z,99.90
2019-05-12T05:37:39.610Z,99.90
2019-05-12T05:40:05.150Z,99.90
2019-05-12T05:42:35.608Z,99.90
2019-05-12T05:45:05.049Z,99.90
2019-05-12T05:47:34.197Z,99.90
2019-05-12T05:50:04.747Z,99.90
2019-05-12T05:52:38.522Z,99.90
2019-05-12T05:55:14.079Z,99.90
2019-05-12T05:57:35.724Z,99.90
2019-05-12T06:00:07.157Z,99.90
2019-05-12T06:02:40.393Z,99.90
2019-05-12T06:05:07.936Z,99.90
2019-05-12T06:07:39.138Z,99.90
2019-05-12T06:10:08.287Z,99.90
2019-05-12T06:12:40.493Z,99.90
2019-05-12T06:15:09.010Z,99.90
2019-05-12T06:17:38.242Z,99.90
2019-05-12T06:20:07.311Z,99.90
2019-05-12T06:22:36.257Z,99.90
2019-05-12T06:25:05.487Z,99.90
2019-05-12T06:27:35.938Z,99.90
2019-05-12T06:30:06.505Z,99.90
2019-05-12T06:32:35.673Z,99.90
2019-05-12T06:35:05.539Z,99.90
2019-05-12T06:37:34.555Z,99.90
2019-05-12T06:40:04.959Z,99.90
2019-05-12T06:42:34.254Z,99.90
2019-05-12T06:45:03.875Z,99.90
2019-05-12T06:47:34.347Z,99.90
2019-05-12T06:50:04.126Z,99.90
2019-05-12T06:52:33.815Z,99.90
2019-05-12T06:55:03.975Z,99.90
2019-05-12T06:57:34.263Z,99.90
2019-05-12T07:00:04.695Z,99.90
2019-05-12T07:02:37.040Z,99.90
2019-05-12T07:05:04.720Z,99.90
2019-05-12T07:07:42.141Z,99.90
2019-05-12T07:10:11.698Z,99.90
2019-05-12T07:12:43.627Z,99.90
2019-05-12T07:15:06.593Z,99.90
2019-05-12T07:17:44.268Z,99.90
2019-05-12T07:20:14.566Z,99.90
2019-05-12T07:22:45.869Z,99.90
2019-05-12T07:25:13.812Z,99.90
2019-05-12T07:27:47.290Z,99.90
2019-05-12T07:30:13.948Z,99.90
2019-05-12T07:32:43.539Z,99.90
2019-05-12T07:35:14.650Z,99.90
2019-05-12T07:37:45.075Z,99.90
2019-05-12T07:40:14.056Z,99.90
2019-05-12T07:42:44.959Z,99.90
2019-05-12T07:45:20.099Z,99.90
2019-05-12T07:47:45.180Z,99.90
2019-05-12T07:50:16.275Z,99.90
2019-05-12T07:52:45.169Z,99.90
2019-05-12T07:55:14.858Z,99.90
2019-05-12T07:57:52.873Z,99.90
2019-05-12T08:00:21.085Z,99.90
2019-05-12T08:02:45.807Z,99.90
2019-05-12T08:05:19.446Z,99.90
2019-05-12T08:07:45.655Z,99.90
2019-05-12T08:10:18.384Z,99.90
2019-05-12T08:13:04.849Z,99.90
2019-05-12T08:15:51.291Z,99.90
2019-05-12T08:18:40.923Z,99.90
2019-05-12T08:21:09.020Z,99.90
2019-05-12T08:23:38.232Z,99.90
2019-05-12T08:26:12.558Z,99.90
2019-05-12T08:28:40.491Z,99.90
2019-05-12T08:31:33.115Z,99.90
2019-05-12T08:34:47.765Z,99.90
2019-05-12T08:36:57.944Z,99.90
2019-05-12T08:39:23.640Z,99.90
2019-05-12T08:41:53.529Z,99.90
2019-05-12T08:44:24.597Z,99.90
2019-05-12T08:46:56.505Z,99.90
2019-05-12T08:49:24.372Z,99.90
2019-05-12T08:51:55.723Z,99.90
2019-05-12T08:54:24.088Z,99.90
2019-05-12T08:56:59.221Z,99.90
2019-05-12T08:59:27.192Z,99.90
2019-05-12T09:01:54.663Z,99.90
2019-05-12T09:04:24.718Z,99.90
2019-05-12T09:06:56.707Z,99.90
2019-05-12T09:09:25.032Z,99.90
2019-05-12T09:11:54.343Z,99.90
2019-05-12T09:14:23.886Z,99.90
2019-05-12T09:17:01.999Z,99.90
2019-05-12T09:19:26.683Z,99.90
2019-05-12T09:21:54.459Z,99.90
2019-05-12T09:24:27.286Z,99.90
2019-05-12T09:26:58.959Z,99.90
2019-05-12T09:29:25.335Z,99.90
2019-05-12T09:31:59.377Z,99.90
2019-05-12T09:34:25.339Z,99.90
2019-05-12T09:36:59.736Z,99.90
2019-05-12T09:39:25.268Z,99.90
2019-05-12T09:41:55.341Z,99.90
2019-05-12T09:44:26.529Z,99.90
2019-05-12T09:46:55.075Z,99.90
2019-05-12T09:49:31.458Z,99.90
2019-05-12T09:51:54.839Z,99.90
2019-05-12T09:54:26.104Z,99.90
2019-05-12T09:56:59.200Z,99.90
2019-05-12T09:59:25.972Z,99.90
2019-05-12T10:01:55.137Z,99.90
2019-05-12T10:04:24.147Z,99.90
2019-05-12T10:06:53.533Z,99.90
2019-05-12T10:09:24.418Z,99.90
2019-05-12T10:12:00.409Z,99.90
2019-05-12T10:14:24.407Z,99.90
2019-05-12T10:16:53.564Z,99.90
2019-05-12T10:19:23.557Z,99.90
2019-05-12T10:21:57.519Z,99.90
2019-05-12T10:24:23.579Z,99.90
2019-05-12T10:26:54.149Z,99.90
2019-05-12T10:29:24.375Z,99.90
2019-05-12T10:31:53.752Z,99.90
2019-05-12T10:34:23.888Z,99.90
2019-05-12T10:36:53.950Z,99.90
2019-05-12T10:39:24.313Z,99.90
2019-05-12T10:41:54.640Z,99.90
2019-05-12T10:44:23.879Z,99.90
2019-05-12T10:46:55.630Z,99.90
2019-05-12T10:49:24.799Z,99.90
2019-05-12T10:51:54.139Z,99.90
2019-05-12T10:54:24.215Z,99.90
2019-05-12T10:56:54.582Z,99.90
2019-05-12T10:59:32.336Z,99.90
2019-05-12T11:01:54.658Z,99.90
2019-05-12T11:04:35.674Z,99.90
2019-05-12T11:07:14.671Z,99.90
2019-05-12T11:09:43.993Z,99.90
2019-05-12T11:12:13.803Z,99.90
2019-05-12T11:14:43.954Z,99.90
2019-05-12T11:17:13.848Z,99.90
2019-05-12T11:19:47.142Z,99.90
2019-05-12T11:22:13.982Z,99.90
2019-05-12T11:24:44.397Z,99.90
2019-05-12T11:27:13.775Z,99.90
2019-05-12T11:29:46.934Z,99.90
2019-05-12T11:32:14.014Z,99.90
2019-05-12T11:34:44.466Z,99.90
2019-05-12T11:37:13.917Z,99.90
2019-05-12T11:39:46.893Z,99.90
2019-05-12T11:42:13.843Z,99.30
2019-05-12T11:44:44.283Z,99.30
2019-05-12T11:47:14.784Z,99.90
2019-05-12T11:49:44.251Z,99.30
2019-05-12T11:52:18.502Z,99.90
2019-05-12T11:54:49.506Z,99.90
2019-05-12T11:57:14.876Z,99.90
2019-05-12T11:59:58.120Z,99.90
2019-05-12T12:02:14.581Z,99.90
2019-05-12T12:04:46.330Z,99.90
2019-05-12T12:07:15.988Z,99.90
2019-05-12T12:09:49.641Z,99.90
2019-05-12T12:12:15.924Z,99.90
2019-05-12T12:14:48.412Z,99.90
2019-05-12T12:17:15.688Z,99.90
2019-05-12T12:19:46.928Z,99.90
2019-05-12T12:22:20.535Z,99.90
2019-05-12T12:24:46.241Z,99.90
2019-05-12T12:27:15.291Z,99.90
2019-05-12T12:29:44.434Z,99.90
2019-05-12T12:32:18.429Z,99.90
2019-05-12T12:34:44.263Z,99.90
2019-05-12T12:37:13.800Z,99.90
2019-05-12T12:39:43.521Z,99.90
2019-05-12T12:42:14.024Z,99.90
2019-05-12T12:44:43.195Z,99.90
2019-05-12T12:47:13.842Z,99.90
2019-05-12T12:49:45.377Z,99.90
2019-05-12T12:52:14.005Z,99.90
2019-05-12T12:54:43.891Z,99.90
2019-05-12T12:57:13.625Z,99.90
2019-05-12T12:59:51.126Z,99.90
2019-05-12T13:02:14.359Z,99.90
2019-05-12T13:04:48.391Z,99.90
2019-05-12T13:07:15.144Z,99.90
2019-05-12T13:09:44.248Z,99.90
2019-05-12T13:12:35.617Z,99.90
2019-05-12T13:15:03.864Z,99.90
2019-05-12T13:17:36.389Z,99.90
2019-05-12T13:20:03.973Z,99.90
2019-05-12T13:22:33.744Z,99.90
2019-05-12T13:25:04.555Z,99.90
2019-05-12T13:27:36.747Z,99.90
2019-05-12T13:30:05.560Z,99.90
2019-05-12T13:32:37.921Z,99.90
2019-05-12T13:35:09.732Z,99.90
2019-05-12T13:37:36.837Z,99.70
2019-05-12T13:40:06.011Z,97.80
2019-05-12T13:42:35.922Z,98.70
2019-05-12T13:45:07.176Z,99.30
2019-05-12T13:47:39.868Z,98.80
2019-05-12T13:50:07.526Z,99.80
2019-05-12T13:52:38.227Z,98.70
2019-05-12T13:55:07.963Z,98.20
2019-05-12T13:57:36.978Z,98.20
2019-05-12T14:00:10.670Z,99.30
2019-05-12T14:02:37.315Z,96.20
2019-05-12T14:05:11.258Z,95.60
2019-05-12T14:07:37.171Z,96.90
2019-05-12T14:10:07.319Z,96.30
2019-05-12T14:12:36.515Z,95.00
2019-05-12T14:15:06.285Z,96.10
2019-05-12T14:17:38.816Z,93.30
2019-05-12T14:20:09.187Z,92.80
2019-05-12T14:22:37.700Z,92.90
2019-05-12T14:25:07.035Z,93.00
2019-05-12T14:27:36.095Z,91.60
2019-05-12T14:30:10.031Z,91.90
2019-05-12T14:32:36.255Z,91.00
2019-05-12T14:35:05.612Z,91.90
2019-05-12T14:37:34.611Z,92.00
2019-05-12T14:40:04.518Z,92.50
2019-05-12T14:42:39.407Z,90.20
2019-05-12T14:45:25.653Z,89.50
2019-05-12T14:47:54.435Z,89.20
2019-05-12T14:50:23.526Z,89.50
2019-05-12T14:52:57.702Z,89.50
2019-05-12T14:55:24.169Z,90.30
2019-05-12T14:57:53.203Z,90.80
2019-05-12T15:00:24.224Z,89.00
2019-05-12T15:02:53.974Z,91.60
2019-05-12T15:05:25.353Z,91.00
2019-05-12T15:07:57.400Z,91.30
2019-05-12T15:10:49.709Z,91.20
2019-05-12T15:13:47.217Z,91.90
2019-05-12T15:16:40.291Z,90.40
2019-05-12T15:19:08.102Z,89.50
2019-05-12T15:21:37.013Z,88.90
2019-05-12T15:24:09.302Z,91.20
2019-05-12T15:26:36.882Z,90.70
2019-05-12T15:29:13.375Z,90.50
2019-05-12T15:31:36.743Z,87.70
2019-05-12T15:34:05.829Z,87.70
2019-05-12T15:36:34.907Z,87.50
2019-05-12T15:39:06.871Z,87.50
2019-05-12T15:41:36.142Z,86.50
2019-05-12T15:44:06.596Z,82.40
2019-05-12T15:46:41.189Z,82.60
2019-05-12T15:49:08.741Z,83.90
2019-05-12T15:51:39.250Z,82.40
2019-05-12T15:54:11.653Z,84.30
2019-05-12T15:56:38.616Z,82.70
2019-05-12T15:59:07.530Z,81.70
2019-05-12T16:01:36.613Z,82.80
2019-05-12T16:04:05.668Z,82.30
2019-05-12T16:06:34.640Z,82.80
2019-05-12T16:09:05.591Z,79.20
2019-05-12T16:11:34.764Z,78.10
2019-05-12T16:14:03.863Z,77.60
2019-05-12T16:16:34.007Z,77.70
2019-05-12T16:19:04.478Z,78.50
2019-05-12T16:21:33.718Z,78.10
2019-05-12T16:24:10.773Z,77.30
2019-05-12T16:26:33.565Z,73.60
2019-05-12T16:29:05.865Z,73.30
2019-05-12T16:31:33.950Z,74.30
2019-05-12T16:34:05.899Z,75.70
2019-05-12T16:36:33.844Z,76.30
2019-05-12T16:39:07.557Z,76.50
2019-05-12T16:41:35.417Z,75.20
2019-05-12T16:45:16.251Z,76.10
2019-05-12T16:47:25.218Z,75.90
2019-05-12T16:49:50.460Z,76.10
2019-05-12T16:52:19.625Z,74.00
2019-05-12T16:54:48.697Z,75.40
2019-05-12T16:57:18.341Z,74.70
2019-05-12T16:59:55.547Z,75.00
2019-05-12T17:02:18.413Z,75.70
2019-05-12T17:05:17.743Z,75.00
2019-05-12T17:07:38.063Z,74.60
2019-05-12T17:10:11.616Z,74.70
2019-05-12T17:12:37.891Z,73.60
2019-05-12T17:15:07.299Z,73.90
2019-05-12T17:17:36.255Z,73.00
2019-05-12T17:20:05.922Z,74.10
2019-05-12T17:22:35.059Z,75.10
2019-05-12T17:25:05.017Z,75.10
2019-05-12T17:27:34.175Z,75.20
2019-05-12T17:30:04.473Z,75.90
2019-05-12T17:32:33.637Z,74.80
2019-05-12T17:35:04.193Z,72.30
2019-05-12T17:37:39.815Z,73.80
2019-05-12T17:40:09.351Z,73.10
2019-05-12T17:42:35.232Z,71.70
2019-05-12T17:45:09.351Z,70.80
2019-05-12T17:47:35.896Z,70.90
2019-05-12T17:50:09.151Z,71.20
2019-05-12T17:52:35.956Z,70.90
2019-05-12T17:55:10.495Z,71.30
2019-05-12T17:57:36.178Z,71.90
2019-05-12T18:00:10.449Z,73.40
2019-05-12T18:02:36.843Z,72.00
2019-05-12T18:05:11.949Z,71.90
2019-05-12T18:07:37.434Z,71.40
2019-05-12T18:10:06.775Z,72.00
2019-05-12T18:12:44.131Z,71.70
2019-05-12T18:15:06.997Z,71.30
2019-05-12T18:17:38.960Z,72.30
2019-05-12T18:20:07.243Z,73.00
2019-05-12T18:22:39.295Z,74.40
2019-05-12T18:25:07.663Z,74.30
2019-05-12T18:27:44.655Z,74.30
2019-05-12T18:30:07.748Z,73.40
2019-05-12T18:32:36.831Z,73.40
2019-05-12T18:35:05.955Z,74.30
2019-05-12T18:37:35.035Z,75.50
2019-05-12T18:40:04.506Z,75.80
2019-05-12T18:42:33.739Z,76.70
2019-05-12T18:45:12.037Z,77.80
2019-05-12T18:47:36.512Z,78.50
2019-05-12T18:50:05.078Z,78.70
2019-05-12T18:52:39.279Z,79.90
2019-05-12T18:55:05.203Z,81.70
2019-05-12T18:57:39.226Z,83.70
2019-05-12T19:00:08.197Z,86.00
2019-05-12T19:02:37.299Z,88.40
2019-05-12T19:05:06.425Z,90.20
2019-05-12T19:07:39.663Z,92.10
2019-05-12T19:10:07.288Z,93.50
2019-05-12T19:12:36.292Z,95.60
2019-05-12T19:15:10.189Z,96.80
2019-05-12T19:17:36.567Z,98.10
2019-05-12T19:20:06.046Z,99.50
2019-05-12T19:22:39.395Z,99.90
2019-05-12T19:25:06.143Z,99.90
2019-05-12T19:27:35.223Z,99.90
2019-05-12T19:30:04.692Z,99.90
2019-05-12T19:32:36.788Z,99.90
2019-05-12T19:35:09.503Z,99.90
2019-05-12T19:37:35.334Z,99.90
2019-05-12T19:40:12.356Z,99.90
2019-05-12T19:42:35.748Z,99.90
2019-05-12T19:45:07.057Z,99.90
2019-05-12T19:47:38.305Z,99.90
2019-05-12T19:50:11.985Z,99.90
2019-05-12T19:52:37.869Z,99.90
2019-05-12T19:55:07.063Z,99.90
2019-05-12T19:57:36.079Z,99.90
2019-05-12T20:00:06.204Z,99.90
2019-05-12T20:02:35.200Z,99.90
2019-05-12T20:05:04.852Z,99.90
2019-05-12T20:07:34.056Z,99.90
2019-05-12T20:10:04.631Z,99.90
2019-05-12T20:12:34.375Z,99.90
2019-05-12T20:15:04.148Z,99.90
2019-05-12T20:17:33.839Z,99.90
2019-05-12T20:20:04.779Z,99.90
2019-05-12T20:22:34.004Z,99.90
2019-05-12T20:25:04.365Z,99.90
2019-05-12T20:27:34.505Z,99.90
2019-05-12T20:30:08.862Z,99.90
2019-05-12T20:32:35.161Z,99.90
2019-05-12T20:35:04.395Z,99.90
2019-05-12T20:37:33.803Z,99.90
2019-05-12T20:40:05.258Z,99.90
2019-05-12T20:42:44.098Z,99.90
2019-05-12T20:45:05.739Z,99.90
2019-05-12T20:47:39.008Z,99.90
2019-05-12T20:50:06.151Z,99.90
2019-05-12T20:52:39.365Z,99.90
2019-05-12T20:55:05.964Z,99.90
2019-05-12T20:57:40.016Z,99.90
2019-05-12T21:00:08.107Z,99.90
2019-05-12T21:02:37.164Z,99.90
2019-05-12T21:05:14.442Z,99.90
2019-05-12T21:07:37.070Z,99.90
2019-05-12T21:10:06.218Z,99.90
2019-05-12T21:12:40.068Z,99.90
2019-05-12T21:15:16.241Z,99.90
2019-05-12T21:17:43.057Z,99.90
2019-05-12T21:20:11.671Z,99.90
2019-05-12T21:22:39.170Z,99.90
2019-05-12T21:25:10.754Z,99.90
2019-05-12T21:27:39.036Z,99.90
2019-05-12T21:30:11.820Z,99.90
2019-05-12T21:32:39.164Z,99.90
2019-05-12T21:35:18.371Z,99.90
2019-05-12T21:37:45.703Z,99.90
2019-05-12T21:40:09.799Z,99.90
2019-05-12T21:42:38.817Z,99.90
2019-05-12T21:45:08.116Z,99.90
2019-05-12T21:47:42.758Z,99.90
2019-05-12T21:50:07.824Z,99.90
2019-05-12T21:52:39.183Z,99.90
2019-05-12T21:55:15.425Z,99.90
2019-05-12T21:57:43.723Z,99.90
2019-05-12T22:00:21.164Z,99.90
2019-05-12T22:02:50.207Z,99.90
2019-05-12T22:05:22.327Z,99.90
2019-05-12T22:07:50.123Z,99.90
2019-05-12T22:10:25.589Z,99.90
2019-05-12T22:12:49.848Z,99.90
2019-05-12T22:15:24.487Z,99.90
2019-05-12T22:17:59.750Z,99.90
2019-05-12T22:20:29.684Z,99.90
2019-05-12T22:23:00.598Z,99.90
2019-05-12T22:25:29.664Z,99.90
2019-05-12T22:27:59.120Z,99.90
2019-05-12T22:30:30.299Z,99.90
2019-05-12T22:33:04.637Z,99.90
2019-05-12T22:35:30.151Z,99.90
2019-05-12T22:37:59.180Z,99.90
2019-05-12T22:40:28.271Z,99.90
2019-05-12T22:43:01.318Z,99.90
2019-05-12T22:45:28.162Z,99.90
2019-05-12T22:47:59.056Z,99.90
2019-05-12T22:50:33.120Z,99.90
2019-05-12T22:52:58.766Z,99.90
2019-05-12T22:55:32.668Z,99.90
2019-05-12T22:57:58.643Z,99.90
2019-05-12T23:00:27.836Z,99.90
2019-05-12T23:03:00.565Z,99.90
2019-05-12T23:05:27.627Z,99.90
2019-05-12T23:08:00.211Z,99.90
2019-05-12T23:10:27.441Z,99.90
2019-05-12T23:13:01.620Z,99.90
2019-05-12T23:15:27.260Z,99.90
2019-05-12T23:17:56.312Z,99.90
2019-05-12T23:20:30.646Z,99.90
2019-05-12T23:22:56.154Z,99.90
2019-05-12T23:25:25.163Z,99.90
2019-05-12T23:27:54.476Z,99.90
2019-05-12T23:30:24.432Z,99.90
2019-05-12T23:32:53.599Z,99.90
2019-05-12T23:35:22.555Z,99.90
2019-05-12T23:37:53.610Z,99.90
2019-05-12T23:40:23.585Z,99.90
2019-05-12T23:42:53.576Z,99.90
2019-05-12T23:45:24.362Z,99.90
2019-05-12T23:47:54.024Z,99.90
2019-05-12T23:50:24.086Z,99.90
2019-05-12T23:52:54.117Z,99.90
2019-05-12T23:55:24.116Z,99.90
2019-05-12T23:57:53.752Z,99.90
